sensor_id;sensor_type;location;lat;lon;timestamp;P1;durP1;ratioP1;P2;durP2;ratioP2
1206;SDS011;593;53.184;8.216;2023-11-21T00:00:53;12.40;;;6.67;;
1206;SDS011;593;53.184;8.216;2023-11-21T00:03:18;11.77;;;6.80;;
1206;SDS011;593;53.184;8.216;2023-11-21T00:05:44;7.07;;;5.13;;
1206;SDS011;593;53.184;8.216;2023-11-21T00:08:09;8.67;;;5.50;;
1206;SDS011;593;53.184;8.216;2023-11-21T00:10:35;7.33;;;5.50;;
1206;SDS011;593;53.184;8.216;2023-11-21T00:13:03;13.10;;;6.67;;
1206;SDS011;593;53.184;8.216;2023-11-21T00:15:29;10.30;;;5.70;;
1206;SDS011;593;53.184;8.216;2023-11-21T00:17:54;9.63;;;5.90;;
1206;SDS011;593;53.184;8.216;2023-11-21T00:20:20;13.27;;;6.57;;
1206;SDS011;593;53.184;8.216;2023-11-21T00:22:45;8.60;;;5.70;;
1206;SDS011;593;53.184;8.216;2023-11-21T00:25:11;10.47;;;6.50;;
1206;SDS011;593;53.184;8.216;2023-11-21T00:27:39;12.23;;;6.03;;
1206;SDS011;593;53.184;8.216;2023-11-21T00:30:05;9.53;;;6.90;;
1206;SDS011;593;53.184;8.216;2023-11-21T00:32:31;10.50;;;6.57;;
1206;SDS011;593;53.184;8.216;2023-11-21T00:34:57;11.03;;;6.17;;
1206;SDS011;593;53.184;8.216;2023-11-21T00:37:22;12.87;;;6.83;;
1206;SDS011;593;53.184;8.216;2023-11-21T00:39:50;6.57;;;5.13;;
1206;SDS011;593;53.184;8.216;2023-11-21T00:42:15;8.87;;;6.13;;
1206;SDS011;593;53.184;8.216;2023-11-21T00:44:40;10.03;;;6.20;;
1206;SDS011;593;53.184;8.216;2023-11-21T00:47:06;12.87;;;6.70;;
1206;SDS011;593;53.184;8.216;2023-11-21T00:52:54;8.70;;;5.80;;
1206;SDS011;593;53.184;8.216;2023-11-21T00:55:20;18.47;;;6.90;;
1206;SDS011;593;53.184;8.216;2023-11-21T00:57:46;11.83;;;7.27;;
1206;SDS011;593;53.184;8.216;2023-11-21T01:00:11;8.97;;;6.40;;
1206;SDS011;593;53.184;8.216;2023-11-21T01:02:42;13.23;;;6.60;;
1206;SDS011;593;53.184;8.216;2023-11-21T01:05:09;14.10;;;7.20;;
1206;SDS011;593;53.184;8.216;2023-11-21T01:07:35;16.47;;;7.07;;
1206;SDS011;593;53.184;8.216;2023-11-21T01:10:02;12.40;;;7.20;;
1206;SDS011;593;53.184;8.216;2023-11-21T01:12:30;9.60;;;6.33;;
1206;SDS011;593;53.184;8.216;2023-11-21T01:14:56;14.00;;;8.20;;
1206;SDS011;593;53.184;8.216;2023-11-21T01:17:22;14.77;;;7.57;;
1206;SDS011;593;53.184;8.216;2023-11-21T01:19:48;13.43;;;6.70;;
1206;SDS011;593;53.184;8.216;2023-11-21T01:22:13;14.50;;;7.43;;
1206;SDS011;593;53.184;8.216;2023-11-21T01:24:39;16.20;;;7.77;;
1206;SDS011;593;53.184;8.216;2023-11-21T01:27:04;11.90;;;7.30;;
1206;SDS011;593;53.184;8.216;2023-11-21T01:29:30;9.50;;;7.73;;
1206;SDS011;593;53.184;8.216;2023-11-21T01:31:55;11.87;;;8.27;;
1206;SDS011;593;53.184;8.216;2023-11-21T01:34:22;15.63;;;7.60;;
1206;SDS011;593;53.184;8.216;2023-11-21T01:36:48;14.50;;;8.50;;
1206;SDS011;593;53.184;8.216;2023-11-21T01:39:14;11.40;;;7.63;;
1206;SDS011;593;53.184;8.216;2023-11-21T01:41:42;18.77;;;7.50;;
1206;SDS011;593;53.184;8.216;2023-11-21T01:44:09;10.47;;;6.40;;
1206;SDS011;593;53.184;8.216;2023-11-21T01:46:35;9.83;;;7.20;;
1206;SDS011;593;53.184;8.216;2023-11-21T01:49:01;7.00;;;5.80;;
1206;SDS011;593;53.184;8.216;2023-11-21T01:51:26;10.33;;;6.50;;
1206;SDS011;593;53.184;8.216;2023-11-21T01:53:52;11.40;;;6.57;;
1206;SDS011;593;53.184;8.216;2023-11-21T01:56:17;14.67;;;7.20;;
1206;SDS011;593;53.184;8.216;2023-11-21T01:58:43;10.70;;;6.50;;
1206;SDS011;593;53.184;8.216;2023-11-21T02:01:09;10.50;;;6.30;;
1206;SDS011;593;53.184;8.216;2023-11-21T02:03:35;11.67;;;6.77;;
1206;SDS011;593;53.184;8.216;2023-11-21T02:06:01;8.40;;;5.53;;
1206;SDS011;593;53.184;8.216;2023-11-21T02:08:26;10.87;;;6.30;;
1206;SDS011;593;53.184;8.216;2023-11-21T02:10:52;15.60;;;7.03;;
1206;SDS011;593;53.184;8.216;2023-11-21T02:13:17;11.80;;;6.17;;
1206;SDS011;593;53.184;8.216;2023-11-21T02:15:43;10.83;;;5.73;;
1206;SDS011;593;53.184;8.216;2023-11-21T02:18:08;8.10;;;6.07;;
1206;SDS011;593;53.184;8.216;2023-11-21T02:20:36;9.60;;;5.50;;
1206;SDS011;593;53.184;8.216;2023-11-21T02:23:03;8.47;;;5.93;;
1206;SDS011;593;53.184;8.216;2023-11-21T02:25:30;8.30;;;6.07;;
1206;SDS011;593;53.184;8.216;2023-11-21T02:27:58;15.20;;;5.53;;
1206;SDS011;593;53.184;8.216;2023-11-21T02:30:25;11.43;;;6.40;;
1206;SDS011;593;53.184;8.216;2023-11-21T02:32:50;11.90;;;6.10;;
1206;SDS011;593;53.184;8.216;2023-11-21T02:35:23;14.85;;;5.78;;
1206;SDS011;593;53.184;8.216;2023-11-21T02:37:50;7.45;;;5.70;;
1206;SDS011;593;53.184;8.216;2023-11-21T02:40:16;13.17;;;7.50;;
1206;SDS011;593;53.184;8.216;2023-11-21T02:42:49;14.77;;;6.30;;
1206;SDS011;593;53.184;8.216;2023-11-21T02:45:18;12.80;;;6.27;;
1206;SDS011;593;53.184;8.216;2023-11-21T02:47:46;11.10;;;6.40;;
1206;SDS011;593;53.184;8.216;2023-11-21T02:50:11;12.30;;;6.43;;
1206;SDS011;593;53.184;8.216;2023-11-21T02:52:38;7.30;;;5.80;;
1206;SDS011;593;53.184;8.216;2023-11-21T02:55:05;14.77;;;6.70;;
1206;SDS011;593;53.184;8.216;2023-11-21T02:57:32;7.97;;;5.57;;
1206;SDS011;593;53.184;8.216;2023-11-21T02:59:58;15.13;;;7.63;;
1206;SDS011;593;53.184;8.216;2023-11-21T03:02:24;13.00;;;6.70;;
1206;SDS011;593;53.184;8.216;2023-11-21T03:04:50;10.83;;;6.17;;
1206;SDS011;593;53.184;8.216;2023-11-21T03:07:16;12.33;;;7.47;;
1206;SDS011;593;53.184;8.216;2023-11-21T03:09:44;14.33;;;6.80;;
1206;SDS011;593;53.184;8.216;2023-11-21T03:12:10;14.67;;;6.53;;
1206;SDS011;593;53.184;8.216;2023-11-21T03:14:37;11.63;;;7.03;;
1206;SDS011;593;53.184;8.216;2023-11-21T03:17:03;8.70;;;6.30;;
1206;SDS011;593;53.184;8.216;2023-11-21T03:19:29;11.67;;;7.50;;
1206;SDS011;593;53.184;8.216;2023-11-21T03:21:55;15.03;;;6.93;;
1206;SDS011;593;53.184;8.216;2023-11-21T03:24:20;12.30;;;8.13;;
1206;SDS011;593;53.184;8.216;2023-11-21T03:26:47;12.17;;;7.63;;
1206;SDS011;593;53.184;8.216;2023-11-21T03:29:13;11.00;;;7.00;;
1206;SDS011;593;53.184;8.216;2023-11-21T03:31:39;12.30;;;7.47;;
1206;SDS011;593;53.184;8.216;2023-11-21T03:34:05;11.93;;;8.00;;
1206;SDS011;593;53.184;8.216;2023-11-21T03:36:31;11.73;;;7.93;;
1206;SDS011;593;53.184;8.216;2023-11-21T03:38:56;14.33;;;8.33;;
1206;SDS011;593;53.184;8.216;2023-11-21T03:41:22;15.97;;;8.73;;
1206;SDS011;593;53.184;8.216;2023-11-21T03:43:47;12.60;;;8.00;;
1206;SDS011;593;53.184;8.216;2023-11-21T03:46:12;12.40;;;9.13;;
1206;SDS011;593;53.184;8.216;2023-11-21T03:48:38;14.50;;;9.03;;
1206;SDS011;593;53.184;8.216;2023-11-21T03:51:04;13.60;;;8.60;;
1206;SDS011;593;53.184;8.216;2023-11-21T03:53:29;12.10;;;7.83;;
1206;SDS011;593;53.184;8.216;2023-11-21T03:55:54;17.50;;;9.17;;
1206;SDS011;593;53.184;8.216;2023-11-21T03:58:20;14.77;;;8.53;;
1206;SDS011;593;53.184;8.216;2023-11-21T04:00:46;14.57;;;8.63;;
1206;SDS011;593;53.184;8.216;2023-11-21T04:03:13;15.47;;;8.63;;
1206;SDS011;593;53.184;8.216;2023-11-21T04:05:39;17.23;;;9.40;;
1206;SDS011;593;53.184;8.216;2023-11-21T04:08:04;16.23;;;7.20;;
1206;SDS011;593;53.184;8.216;2023-11-21T04:10:29;14.93;;;8.50;;
1206;SDS011;593;53.184;8.216;2023-11-21T04:12:55;14.20;;;9.10;;
1206;SDS011;593;53.184;8.216;2023-11-21T04:15:20;16.00;;;9.10;;
1206;SDS011;593;53.184;8.216;2023-11-21T04:17:45;17.73;;;10.10;;
1206;SDS011;593;53.184;8.216;2023-11-21T04:20:11;19.40;;;11.07;;
1206;SDS011;593;53.184;8.216;2023-11-21T04:22:37;18.73;;;10.67;;
1206;SDS011;593;53.184;8.216;2023-11-21T04:25:12;16.53;;;11.73;;
1206;SDS011;593;53.184;8.216;2023-11-21T04:27:40;17.40;;;11.43;;
1206;SDS011;593;53.184;8.216;2023-11-21T04:30:08;15.93;;;12.20;;
1206;SDS011;593;53.184;8.216;2023-11-21T04:32:35;22.53;;;10.90;;
1206;SDS011;593;53.184;8.216;2023-11-21T04:35:00;16.73;;;10.40;;
1206;SDS011;593;53.184;8.216;2023-11-21T04:37:26;20.30;;;12.73;;
1206;SDS011;593;53.184;8.216;2023-11-21T04:39:51;17.80;;;11.20;;
1206;SDS011;593;53.184;8.216;2023-11-21T04:42:17;20.03;;;11.47;;
1206;SDS011;593;53.184;8.216;2023-11-21T04:44:42;18.47;;;11.37;;
1206;SDS011;593;53.184;8.216;2023-11-21T04:47:09;19.87;;;11.73;;
1206;SDS011;593;53.184;8.216;2023-11-21T04:49:34;16.60;;;11.07;;
1206;SDS011;593;53.184;8.216;2023-11-21T04:51:59;18.67;;;11.47;;
1206;SDS011;593;53.184;8.216;2023-11-21T04:54:26;16.95;;;11.75;;
1206;SDS011;593;53.184;8.216;2023-11-21T04:56:51;19.67;;;13.30;;
1206;SDS011;593;53.184;8.216;2023-11-21T04:59:17;21.50;;;12.97;;
1206;SDS011;593;53.184;8.216;2023-11-21T05:01:42;18.40;;;11.43;;
1206;SDS011;593;53.184;8.216;2023-11-21T05:04:07;17.90;;;12.30;;
1206;SDS011;593;53.184;8.216;2023-11-21T05:06:33;15.60;;;10.57;;
1206;SDS011;593;53.184;8.216;2023-11-21T05:08:59;19.97;;;13.40;;
1206;SDS011;593;53.184;8.216;2023-11-21T05:11:27;17.63;;;12.40;;
1206;SDS011;593;53.184;8.216;2023-11-21T05:13:54;15.90;;;11.90;;
1206;SDS011;593;53.184;8.216;2023-11-21T05:16:21;22.30;;;12.60;;
1206;SDS011;593;53.184;8.216;2023-11-21T05:18:47;16.13;;;12.37;;
1206;SDS011;593;53.184;8.216;2023-11-21T05:21:12;15.77;;;12.00;;
1206;SDS011;593;53.184;8.216;2023-11-21T05:23:37;15.17;;;10.60;;
1206;SDS011;593;53.184;8.216;2023-11-21T05:26:03;18.43;;;12.80;;
1206;SDS011;593;53.184;8.216;2023-11-21T05:28:28;18.10;;;11.70;;
1206;SDS011;593;53.184;8.216;2023-11-21T05:30:54;14.47;;;10.87;;
1206;SDS011;593;53.184;8.216;2023-11-21T05:33:20;15.50;;;10.27;;
1206;SDS011;593;53.184;8.216;2023-11-21T05:35:45;16.30;;;10.93;;
1206;SDS011;593;53.184;8.216;2023-11-21T05:38:10;11.60;;;9.90;;
1206;SDS011;593;53.184;8.216;2023-11-21T05:40:36;15.23;;;9.50;;
1206;SDS011;593;53.184;8.216;2023-11-21T05:43:01;19.90;;;9.93;;
1206;SDS011;593;53.184;8.216;2023-11-21T05:45:27;12.10;;;8.70;;
1206;SDS011;593;53.184;8.216;2023-11-21T05:47:53;14.50;;;9.90;;
1206;SDS011;593;53.184;8.216;2023-11-21T05:50:22;15.40;;;10.60;;
1206;SDS011;593;53.184;8.216;2023-11-21T05:52:48;15.10;;;9.00;;
1206;SDS011;593;53.184;8.216;2023-11-21T05:55:14;11.97;;;9.17;;
1206;SDS011;593;53.184;8.216;2023-11-21T05:57:40;13.17;;;8.70;;
1206;SDS011;593;53.184;8.216;2023-11-21T06:00:10;12.30;;;8.83;;
1206;SDS011;593;53.184;8.216;2023-11-21T06:02:43;14.33;;;9.60;;
1206;SDS011;593;53.184;8.216;2023-11-21T06:05:08;12.60;;;8.80;;
1206;SDS011;593;53.184;8.216;2023-11-21T06:07:35;13.23;;;9.17;;
1206;SDS011;593;53.184;8.216;2023-11-21T06:10:07;12.43;;;8.47;;
1206;SDS011;593;53.184;8.216;2023-11-21T06:12:36;11.37;;;8.40;;
1206;SDS011;593;53.184;8.216;2023-11-21T06:15:02;14.30;;;9.20;;
1206;SDS011;593;53.184;8.216;2023-11-21T06:17:38;15.27;;;8.90;;
1206;SDS011;593;53.184;8.216;2023-11-21T06:20:04;12.73;;;8.83;;
1206;SDS011;593;53.184;8.216;2023-11-21T06:22:37;13.23;;;9.77;;
1206;SDS011;593;53.184;8.216;2023-11-21T06:25:04;16.80;;;10.50;;
1206;SDS011;593;53.184;8.216;2023-11-21T06:27:33;16.67;;;8.98;;
1206;SDS011;593;53.184;8.216;2023-11-21T06:30:01;13.03;;;9.30;;
1206;SDS011;593;53.184;8.216;2023-11-21T06:32:27;14.63;;;10.93;;
1206;SDS011;593;53.184;8.216;2023-11-21T06:34:54;12.93;;;9.33;;
1206;SDS011;593;53.184;8.216;2023-11-21T06:37:24;11.37;;;8.80;;
1206;SDS011;593;53.184;8.216;2023-11-21T06:39:49;10.77;;;8.30;;
1206;SDS011;593;53.184;8.216;2023-11-21T06:42:17;9.35;;;6.70;;
1206;SDS011;593;53.184;8.216;2023-11-21T06:44:42;9.73;;;7.07;;
1206;SDS011;593;53.184;8.216;2023-11-21T06:47:09;10.23;;;7.30;;
1206;SDS011;593;53.184;8.216;2023-11-21T06:49:34;11.33;;;7.67;;
1206;SDS011;593;53.184;8.216;2023-11-21T06:51:59;12.30;;;7.70;;
1206;SDS011;593;53.184;8.216;2023-11-21T06:54:27;8.10;;;6.87;;
1206;SDS011;593;53.184;8.216;2023-11-21T06:56:53;8.37;;;6.43;;
1206;SDS011;593;53.184;8.216;2023-11-21T06:59:18;9.03;;;6.53;;
1206;SDS011;593;53.184;8.216;2023-11-21T07:01:43;9.20;;;6.80;;
1206;SDS011;593;53.184;8.216;2023-11-21T07:04:09;7.73;;;6.87;;
1206;SDS011;593;53.184;8.216;2023-11-21T07:06:35;8.30;;;7.40;;
1206;SDS011;593;53.184;8.216;2023-11-21T07:09:00;10.60;;;8.27;;
1206;SDS011;593;53.184;8.216;2023-11-21T07:11:26;7.60;;;6.80;;
1206;SDS011;593;53.184;8.216;2023-11-21T07:13:52;8.80;;;7.77;;
1206;SDS011;593;53.184;8.216;2023-11-21T07:16:18;10.40;;;8.20;;
1206;SDS011;593;53.184;8.216;2023-11-21T07:18:44;8.80;;;7.33;;
1206;SDS011;593;53.184;8.216;2023-11-21T07:21:09;8.27;;;6.97;;
1206;SDS011;593;53.184;8.216;2023-11-21T07:23:37;7.90;;;6.80;;
1206;SDS011;593;53.184;8.216;2023-11-21T07:26:02;7.23;;;6.30;;
1206;SDS011;593;53.184;8.216;2023-11-21T07:28:28;8.10;;;7.10;;
1206;SDS011;593;53.184;8.216;2023-11-21T07:30:55;7.95;;;6.93;;
1206;SDS011;593;53.184;8.216;2023-11-21T07:33:20;8.27;;;5.90;;
1206;SDS011;593;53.184;8.216;2023-11-21T07:35:46;8.27;;;6.25;;
1206;SDS011;593;53.184;8.216;2023-11-21T07:38:12;10.20;;;6.90;;
1206;SDS011;593;53.184;8.216;2023-11-21T07:40:38;8.98;;;6.28;;
1206;SDS011;593;53.184;8.216;2023-11-21T07:43:04;7.23;;;6.40;;
1206;SDS011;593;53.184;8.216;2023-11-21T07:45:30;9.07;;;6.73;;
1206;SDS011;593;53.184;8.216;2023-11-21T07:47:56;8.70;;;6.20;;
1206;SDS011;593;53.184;8.216;2023-11-21T07:50:21;8.47;;;7.57;;
1206;SDS011;593;53.184;8.216;2023-11-21T07:52:48;8.27;;;6.68;;
1206;SDS011;593;53.184;8.216;2023-11-21T07:55:14;10.73;;;7.95;;
1206;SDS011;593;53.184;8.216;2023-11-21T07:57:40;8.53;;;5.57;;
1206;SDS011;593;53.184;8.216;2023-11-21T08:00:06;8.70;;;7.60;;
1206;SDS011;593;53.184;8.216;2023-11-21T08:02:34;8.90;;;6.30;;
1206;SDS011;593;53.184;8.216;2023-11-21T08:04:59;8.20;;;6.30;;
1206;SDS011;593;53.184;8.216;2023-11-21T08:07:25;8.87;;;7.53;;
1206;SDS011;593;53.184;8.216;2023-11-21T08:09:51;9.60;;;7.27;;
1206;SDS011;593;53.184;8.216;2023-11-21T08:12:17;8.98;;;6.60;;
1206;SDS011;593;53.184;8.216;2023-11-21T08:14:45;7.75;;;6.10;;
1206;SDS011;593;53.184;8.216;2023-11-21T08:17:10;6.87;;;5.80;;
1206;SDS011;593;53.184;8.216;2023-11-21T08:19:36;8.03;;;6.37;;
1206;SDS011;593;53.184;8.216;2023-11-21T08:22:02;11.77;;;7.07;;
1206;SDS011;593;53.184;8.216;2023-11-21T08:24:28;11.85;;;7.93;;
1206;SDS011;593;53.184;8.216;2023-11-21T08:26:54;8.47;;;7.37;;
1206;SDS011;593;53.184;8.216;2023-11-21T08:29:21;9.68;;;6.60;;
1206;SDS011;593;53.184;8.216;2023-11-21T08:31:48;8.30;;;7.38;;
1206;SDS011;593;53.184;8.216;2023-11-21T08:34:13;7.80;;;6.70;;
1206;SDS011;593;53.184;8.216;2023-11-21T08:36:43;11.57;;;7.80;;
1206;SDS011;593;53.184;8.216;2023-11-21T08:39:09;8.70;;;6.50;;
1206;SDS011;593;53.184;8.216;2023-11-21T08:41:35;8.05;;;6.50;;
1206;SDS011;593;53.184;8.216;2023-11-21T08:44:01;8.60;;;7.70;;
1206;SDS011;593;53.184;8.216;2023-11-21T08:46:30;8.75;;;6.40;;
1206;SDS011;593;53.184;8.216;2023-11-21T08:48:56;8.67;;;6.70;;
1206;SDS011;593;53.184;8.216;2023-11-21T08:51:21;7.40;;;6.50;;
1206;SDS011;593;53.184;8.216;2023-11-21T08:53:52;9.83;;;7.37;;
1206;SDS011;593;53.184;8.216;2023-11-21T08:56:18;7.33;;;5.80;;
1206;SDS011;593;53.184;8.216;2023-11-21T08:58:45;7.93;;;6.60;;
1206;SDS011;593;53.184;8.216;2023-11-21T09:01:11;10.80;;;7.33;;
1206;SDS011;593;53.184;8.216;2023-11-21T09:03:37;9.30;;;7.17;;
1206;SDS011;593;53.184;8.216;2023-11-21T09:06:03;10.20;;;7.43;;
1206;SDS011;593;53.184;8.216;2023-11-21T09:08:29;10.65;;;6.65;;
1206;SDS011;593;53.184;8.216;2023-11-21T09:10:54;9.73;;;8.67;;
1206;SDS011;593;53.184;8.216;2023-11-21T09:13:20;8.07;;;7.27;;
1206;SDS011;593;53.184;8.216;2023-11-21T09:15:45;9.40;;;7.37;;
1206;SDS011;593;53.184;8.216;2023-11-21T09:18:14;8.63;;;6.67;;
1206;SDS011;593;53.184;8.216;2023-11-21T09:20:40;7.53;;;6.65;;
1206;SDS011;593;53.184;8.216;2023-11-21T09:23:06;9.27;;;7.83;;
1206;SDS011;593;53.184;8.216;2023-11-21T09:25:32;8.95;;;5.95;;
1206;SDS011;593;53.184;8.216;2023-11-21T09:27:57;7.80;;;6.57;;
1206;SDS011;593;53.184;8.216;2023-11-21T09:30:23;9.20;;;7.70;;
1206;SDS011;593;53.184;8.216;2023-11-21T09:32:50;8.50;;;7.00;;
1206;SDS011;593;53.184;8.216;2023-11-21T09:35:17;10.48;;;7.10;;
1206;SDS011;593;53.184;8.216;2023-11-21T09:37:46;6.60;;;5.53;;
1206;SDS011;593;53.184;8.216;2023-11-21T09:40:12;10.70;;;7.82;;
1206;SDS011;593;53.184;8.216;2023-11-21T09:42:55;6.77;;;5.57;;
1206;SDS011;593;53.184;8.216;2023-11-21T09:47:50;7.33;;;5.80;;
1206;SDS011;593;53.184;8.216;2023-11-21T09:50:18;8.20;;;6.32;;
1206;SDS011;593;53.184;8.216;2023-11-21T09:55:32;8.85;;;7.10;;
1206;SDS011;593;53.184;8.216;2023-11-21T09:58:04;7.80;;;7.00;;
1206;SDS011;593;53.184;8.216;2023-11-21T10:00:32;8.67;;;6.80;;
1206;SDS011;593;53.184;8.216;2023-11-21T10:02:58;8.93;;;6.50;;
1206;SDS011;593;53.184;8.216;2023-11-21T10:05:24;8.20;;;6.97;;
1206;SDS011;593;53.184;8.216;2023-11-21T10:07:50;8.03;;;6.47;;
1206;SDS011;593;53.184;8.216;2023-11-21T10:10:18;8.53;;;7.30;;
1206;SDS011;593;53.184;8.216;2023-11-21T10:12:46;7.90;;;6.47;;
1206;SDS011;593;53.184;8.216;2023-11-21T10:15:16;8.17;;;6.00;;
1206;SDS011;593;53.184;8.216;2023-11-21T10:17:41;8.20;;;6.10;;
1206;SDS011;593;53.184;8.216;2023-11-21T10:20:10;8.90;;;7.63;;
1206;SDS011;593;53.184;8.216;2023-11-21T10:22:37;9.90;;;6.70;;
1206;SDS011;593;53.184;8.216;2023-11-21T10:25:06;6.77;;;5.73;;
1206;SDS011;593;53.184;8.216;2023-11-21T10:27:33;7.20;;;6.20;;
1206;SDS011;593;53.184;8.216;2023-11-21T10:30:00;5.23;;;4.77;;
1206;SDS011;593;53.184;8.216;2023-11-21T10:32:28;7.97;;;6.07;;
1206;SDS011;593;53.184;8.216;2023-11-21T10:34:57;9.10;;;6.17;;
1206;SDS011;593;53.184;8.216;2023-11-21T10:37:23;9.80;;;6.17;;
1206;SDS011;593;53.184;8.216;2023-11-21T10:39:49;8.40;;;6.93;;
1206;SDS011;593;53.184;8.216;2023-11-21T10:42:15;12.03;;;6.50;;
1206;SDS011;593;53.184;8.216;2023-11-21T10:44:43;6.77;;;5.53;;
1206;SDS011;593;53.184;8.216;2023-11-21T10:47:11;10.00;;;6.20;;
1206;SDS011;593;53.184;8.216;2023-11-21T10:49:36;9.03;;;5.90;;
1206;SDS011;593;53.184;8.216;2023-11-21T10:52:02;7.83;;;6.83;;
1206;SDS011;593;53.184;8.216;2023-11-21T10:54:29;6.73;;;5.80;;
1206;SDS011;593;53.184;8.216;2023-11-21T10:56:58;8.13;;;6.40;;
1206;SDS011;593;53.184;8.216;2023-11-21T10:59:26;7.97;;;6.80;;
1206;SDS011;593;53.184;8.216;2023-11-21T11:01:54;7.78;;;6.85;;
1206;SDS011;593;53.184;8.216;2023-11-21T11:04:23;11.70;;;7.40;;
1206;SDS011;593;53.184;8.216;2023-11-21T11:06:56;7.95;;;6.30;;
1206;SDS011;593;53.184;8.216;2023-11-21T11:09:23;7.88;;;6.00;;
1206;SDS011;593;53.184;8.216;2023-11-21T11:11:48;7.43;;;6.43;;
1206;SDS011;593;53.184;8.216;2023-11-21T11:14:16;9.23;;;6.65;;
1206;SDS011;593;53.184;8.216;2023-11-21T11:16:44;9.13;;;6.23;;
1206;SDS011;593;53.184;8.216;2023-11-21T11:19:13;6.47;;;5.87;;
1206;SDS011;593;53.184;8.216;2023-11-21T11:32:53;6.97;;;6.17;;
1206;SDS011;593;53.184;8.216;2023-11-21T11:37:54;6.25;;;5.63;;
1206;SDS011;593;53.184;8.216;2023-11-21T11:40:19;8.17;;;6.10;;
1206;SDS011;593;53.184;8.216;2023-11-21T11:42:57;6.10;;;5.50;;
1206;SDS011;593;53.184;8.216;2023-11-21T11:45:32;7.47;;;5.87;;
1206;SDS011;593;53.184;8.216;2023-11-21T11:48:02;8.82;;;6.45;;
1206;SDS011;593;53.184;8.216;2023-11-21T11:50:28;8.03;;;5.63;;
1206;SDS011;593;53.184;8.216;2023-11-21T11:52:54;7.60;;;6.10;;
1206;SDS011;593;53.184;8.216;2023-11-21T11:55:22;7.80;;;6.83;;
1206;SDS011;593;53.184;8.216;2023-11-21T11:57:55;7.73;;;5.87;;
1206;SDS011;593;53.184;8.216;2023-11-21T12:02:59;6.75;;;5.68;;
1206;SDS011;593;53.184;8.216;2023-11-21T12:05:28;6.85;;;5.38;;
1206;SDS011;593;53.184;8.216;2023-11-21T12:07:58;7.37;;;4.80;;
1206;SDS011;593;53.184;8.216;2023-11-21T12:10:26;7.10;;;6.10;;
1206;SDS011;593;53.184;8.216;2023-11-21T12:12:57;5.90;;;4.90;;
1206;SDS011;593;53.184;8.216;2023-11-21T12:15:24;6.22;;;4.70;;
1206;SDS011;593;53.184;8.216;2023-11-21T12:17:52;5.45;;;4.50;;
1206;SDS011;593;53.184;8.216;2023-11-21T12:20:19;4.60;;;4.13;;
1206;SDS011;593;53.184;8.216;2023-11-21T12:25:15;4.93;;;4.45;;
1206;SDS011;593;53.184;8.216;2023-11-21T12:27:45;5.33;;;3.73;;
1206;SDS011;593;53.184;8.216;2023-11-21T12:30:11;5.47;;;3.35;;
1206;SDS011;593;53.184;8.216;2023-11-21T12:32:47;3.10;;;2.80;;
1206;SDS011;593;53.184;8.216;2023-11-21T12:35:13;3.43;;;2.90;;
1206;SDS011;593;53.184;8.216;2023-11-21T12:37:40;3.93;;;3.20;;
1206;SDS011;593;53.184;8.216;2023-11-21T12:40:08;3.83;;;3.50;;
1206;SDS011;593;53.184;8.216;2023-11-21T12:42:36;4.20;;;3.30;;
1206;SDS011;593;53.184;8.216;2023-11-21T12:45:09;5.93;;;4.67;;
1206;SDS011;593;53.184;8.216;2023-11-21T12:47:45;3.92;;;3.53;;
1206;SDS011;593;53.184;8.216;2023-11-21T12:50:15;5.47;;;3.53;;
1206;SDS011;593;53.184;8.216;2023-11-21T12:52:46;7.63;;;4.90;;
1206;SDS011;593;53.184;8.216;2023-11-21T12:55:16;7.57;;;5.77;;
1206;SDS011;593;53.184;8.216;2023-11-21T12:57:42;5.18;;;4.68;;
1206;SDS011;593;53.184;8.216;2023-11-21T13:00:15;4.30;;;3.80;;
1206;SDS011;593;53.184;8.216;2023-11-21T13:02:52;5.50;;;4.40;;
1206;SDS011;593;53.184;8.216;2023-11-21T13:05:25;4.70;;;4.20;;
1206;SDS011;593;53.184;8.216;2023-11-21T13:07:56;4.70;;;4.20;;
1206;SDS011;593;53.184;8.216;2023-11-21T13:10:26;5.43;;;3.83;;
1206;SDS011;593;53.184;8.216;2023-11-21T13:12:56;4.18;;;3.80;;
1206;SDS011;593;53.184;8.216;2023-11-21T13:15:33;5.03;;;4.50;;
1206;SDS011;593;53.184;8.216;2023-11-21T13:18:01;4.85;;;4.35;;
1206;SDS011;593;53.184;8.216;2023-11-21T13:20:27;4.60;;;4.30;;
1206;SDS011;593;53.184;8.216;2023-11-21T13:22:55;4.47;;;4.07;;
1206;SDS011;593;53.184;8.216;2023-11-21T13:25:26;4.25;;;3.85;;
1206;SDS011;593;53.184;8.216;2023-11-21T13:27:53;5.53;;;4.35;;
1206;SDS011;593;53.184;8.216;2023-11-21T13:30:19;4.00;;;3.65;;
1206;SDS011;593;53.184;8.216;2023-11-21T13:32:51;3.30;;;3.00;;
1206;SDS011;593;53.184;8.216;2023-11-21T13:35:17;4.80;;;3.87;;
1206;SDS011;593;53.184;8.216;2023-11-21T13:37:50;5.32;;;4.00;;
1206;SDS011;593;53.184;8.216;2023-11-21T13:40:21;5.05;;;4.65;;
1206;SDS011;593;53.184;8.216;2023-11-21T13:42:54;5.40;;;4.03;;
1206;SDS011;593;53.184;8.216;2023-11-21T13:45:23;4.23;;;3.47;;
1206;SDS011;593;53.184;8.216;2023-11-21T13:47:49;5.30;;;3.50;;
1206;SDS011;593;53.184;8.216;2023-11-21T13:50:27;5.97;;;4.93;;
1206;SDS011;593;53.184;8.216;2023-11-21T13:53:02;3.95;;;3.58;;
1206;SDS011;593;53.184;8.216;2023-11-21T13:55:36;5.15;;;4.30;;
1206;SDS011;593;53.184;8.216;2023-11-21T13:58:02;6.25;;;4.63;;
1206;SDS011;593;53.184;8.216;2023-11-21T14:00:34;8.03;;;4.60;;
1206;SDS011;593;53.184;8.216;2023-11-21T14:03:20;7.32;;;5.05;;
1206;SDS011;593;53.184;8.216;2023-11-21T14:05:47;5.90;;;5.30;;
1206;SDS011;593;53.184;8.216;2023-11-21T14:08:19;5.27;;;3.90;;
1206;SDS011;593;53.184;8.216;2023-11-21T14:10:49;7.40;;;4.53;;
1206;SDS011;593;53.184;8.216;2023-11-21T14:13:22;4.90;;;4.50;;
1206;SDS011;593;53.184;8.216;2023-11-21T14:15:53;5.03;;;4.27;;
1206;SDS011;593;53.184;8.216;2023-11-21T14:18:27;4.15;;;3.80;;
1206;SDS011;593;53.184;8.216;2023-11-21T14:21:01;4.60;;;4.20;;
1206;SDS011;593;53.184;8.216;2023-11-21T14:23:26;9.03;;;4.50;;
1206;SDS011;593;53.184;8.216;2023-11-21T14:25:53;6.93;;;6.05;;
1206;SDS011;593;53.184;8.216;2023-11-21T14:28:19;5.97;;;4.50;;
1206;SDS011;593;53.184;8.216;2023-11-21T14:30:45;6.00;;;4.20;;
1206;SDS011;593;53.184;8.216;2023-11-21T14:33:11;5.30;;;4.80;;
1206;SDS011;593;53.184;8.216;2023-11-21T14:35:37;4.73;;;4.23;;
1206;SDS011;593;53.184;8.216;2023-11-21T14:38:02;5.10;;;4.60;;
1206;SDS011;593;53.184;8.216;2023-11-21T14:40:30;6.70;;;4.10;;
1206;SDS011;593;53.184;8.216;2023-11-21T14:43:01;4.60;;;4.20;;
1206;SDS011;593;53.184;8.216;2023-11-21T14:45:31;5.60;;;5.10;;
1206;SDS011;593;53.184;8.216;2023-11-21T14:48:00;4.70;;;4.30;;
1206;SDS011;593;53.184;8.216;2023-11-21T14:50:40;5.38;;;4.85;;
1206;SDS011;593;53.184;8.216;2023-11-21T14:53:07;4.83;;;4.20;;
1206;SDS011;593;53.184;8.216;2023-11-21T14:55:33;4.90;;;4.50;;
1206;SDS011;593;53.184;8.216;2023-11-21T14:58:15;5.32;;;4.82;;
1206;SDS011;593;53.184;8.216;2023-11-21T15:00:50;5.13;;;4.67;;
1206;SDS011;593;53.184;8.216;2023-11-21T15:03:21;5.33;;;4.93;;
1206;SDS011;593;53.184;8.216;2023-11-21T15:06:08;5.75;;;5.25;;
1206;SDS011;593;53.184;8.216;2023-11-21T15:08:55;5.33;;;4.83;;
1206;SDS011;593;53.184;8.216;2023-11-21T15:11:24;5.25;;;4.85;;
1206;SDS011;593;53.184;8.216;2023-11-21T15:13:55;9.23;;;5.30;;
1206;SDS011;593;53.184;8.216;2023-11-21T15:16:21;5.70;;;5.10;;
1206;SDS011;593;53.184;8.216;2023-11-21T15:18:46;5.13;;;4.63;;
1206;SDS011;593;53.184;8.216;2023-11-21T15:21:11;4.87;;;4.37;;
1206;SDS011;593;53.184;8.216;2023-11-21T15:23:37;4.60;;;4.10;;
1206;SDS011;593;53.184;8.216;2023-11-21T15:26:04;5.00;;;4.57;;
1206;SDS011;593;53.184;8.216;2023-11-21T15:28:30;5.45;;;4.88;;
1206;SDS011;593;53.184;8.216;2023-11-21T15:30:57;4.90;;;4.50;;
1206;SDS011;593;53.184;8.216;2023-11-21T15:33:23;5.00;;;4.57;;
1206;SDS011;593;53.184;8.216;2023-11-21T15:35:48;6.00;;;4.87;;
1206;SDS011;593;53.184;8.216;2023-11-21T15:38:13;5.00;;;4.17;;
1206;SDS011;593;53.184;8.216;2023-11-21T15:40:39;5.60;;;4.60;;
1206;SDS011;593;53.184;8.216;2023-11-21T15:43:04;6.10;;;5.27;;
1206;SDS011;593;53.184;8.216;2023-11-21T15:45:32;9.10;;;5.78;;
1206;SDS011;593;53.184;8.216;2023-11-21T15:47:57;9.20;;;6.53;;
1206;SDS011;593;53.184;8.216;2023-11-21T15:50:23;10.07;;;6.50;;